Time;durP1;ratioP1;P1;durP2;ratioP2;P2;SDS_P1;SDS_P2;PMS_P1;PMS_P2;Temp;Humidity;BMP_temperature;BMP_pressure;BME280_temperature;BME280_humidity;BME280_pressure;Samples;Min_cycle;Max_cycle;Signal;HPM_P1;HPM_P2
2021/10/18 00:00:09;;;;;;;0.10;0.10;;;;;;;;;;5042370;28;20856;-80
2021/10/18 00:02:35;;;;;;;;;;;;;;;;;;5044706;28;20036;-80
2021/10/18 00:05:02;;;;;;;0.10;0.10;;;;;;;;;;5041111;28;19913;-80
2021/10/18 00:07:28;;;;;;;0.67;0.67;;;;;;;;;;5039415;28;20066;-79
2021/10/18 00:09:54;;;;;;;0.10;0.10;;;;;;;;;;5038963;28;20029;-80
2021/10/18 00:12:20;;;;;;;0.15;0.15;;;;;;;;;;5040250;28;20025;-80
2021/10/18 00:14:46;;;;;;;0.20;0.20;;;;;;;;;;5042220;28;20714;-80
2021/10/18 00:17:12;;;;;;;0.60;0.60;;;;;;;;;;5041726;28;20032;-79
2021/10/18 00:19:39;;;;;;;0.38;0.38;;;;;;;;;;5039788;28;20036;-79
2021/10/18 00:22:05;;;;;;;0.80;0.70;;;;;;;;;;5039413;28;20021;-79
2021/10/18 00:24:31;;;;;;;0.20;0.20;;;;;;;;;;5040265;28;20538;-78
2021/10/18 00:26:57;;;;;;;0.43;0.43;;;;;;;;;;5041045;28;20064;-78
2021/10/18 00:29:23;;;;;;;0.20;0.20;;;;;;;;;;5041914;28;20025;-78
2021/10/18 00:31:49;;;;;;;0.93;0.60;;;;;;;;;;5038318;28;20060;-78
2021/10/18 00:34:15;;;;;;;0.37;0.37;;;;;;;;;;5040949;28;20033;-78
2021/10/18 00:36:41;;;;;;;0.10;0.10;;;;;;;;;;5039874;28;20047;-78
2021/10/18 00:39:07;;;;;;;1.25;0.57;;;;;;;;;;5039225;28;20479;-77
2021/10/18 00:41:33;;;;;;;0.20;0.20;;;;;;;;;;5040673;28;20044;-77
2021/10/18 00:43:59;;;;;;;0.03;0.03;;;;;;;;;;5038221;28;20037;-77
2021/10/18 00:46:26;;;;;;;0.10;0.10;;;;;;;;;;5038905;28;20314;-78
2021/10/18 00:48:52;;;;;;;1.80;1.13;;;;;;;;;;5039287;28;20280;-77
2021/10/18 00:51:18;;;;;;;;;;;;;;;;;;5040799;28;20811;-78
2021/10/18 00:53:45;;;;;;;0.10;0.10;;;;;;;;;;5042305;28;19912;-79
2021/10/18 00:56:12;;;;;;;0.30;0.30;;;;;;;;;;5039794;28;20036;-79
2021/10/18 00:58:38;;;;;;;0.30;0.30;;;;;;;;;;5040449;28;20032;-79
2021/10/18 01:01:04;;;;;;;0.30;0.30;;;;;;;;;;5039487;28;20064;-79
2021/10/18 01:03:30;;;;;;;0.40;0.40;;;;;;;;;;5040964;28;20045;-80
2021/10/18 01:05:56;;;;;;;0.10;0.10;;;;;;;;;;5042706;28;20144;-80
2021/10/18 01:08:22;;;;;;;0.20;0.20;;;;;;;;;;5041252;28;20621;-79
2021/10/18 01:10:48;;;;;;;0.47;0.43;;;;;;;;;;5039839;28;20288;-79
2021/10/18 01:13:15;;;;;;;0.20;0.20;;;;;;;;;;5038119;28;20080;-79
2021/10/18 01:15:41;;;;;;;2.50;2.30;;;;;;;;;;5038945;28;20025;-79
2021/10/18 01:18:07;;;;;;;0.43;0.43;;;;;;;;;;5040445;28;20504;-79
2021/10/18 01:20:34;;;;;;;2.35;0.98;;;;;;;;;;5036102;28;20028;-78
2021/10/18 01:23:00;;;;;;;0.32;0.32;;;;;;;;;;5037124;28;20051;-78
2021/10/18 01:25:27;;;;;;;0.13;0.13;;;;;;;;;;5039316;28;20045;-79
2021/10/18 01:27:54;;;;;;;0.60;0.60;;;;;;;;;;5040251;28;20098;-79
2021/10/18 01:30:20;;;;;;;0.30;0.30;;;;;;;;;;5041128;28;20032;-79
2021/10/18 01:32:46;;;;;;;0.20;0.20;;;;;;;;;;5042419;28;20036;-79
2021/10/18 01:35:12;;;;;;;0.45;0.45;;;;;;;;;;5040016;28;20100;-79
2021/10/18 01:37:38;;;;;;;1.10;0.73;;;;;;;;;;5039846;28;20268;-78
2021/10/18 01:40:08;;;;;;;0.23;0.23;;;;;;;;;;5035177;28;20028;-78
2021/10/18 01:42:35;;;;;;;0.32;0.32;;;;;;;;;;5038218;28;20059;-78
2021/10/18 01:45:01;;;;;;;1.80;1.00;;;;;;;;;;5036192;28;20380;-79
2021/10/18 01:47:27;;;;;;;0.20;0.20;;;;;;;;;;5037772;28;20049;-78
2021/10/18 01:49:56;;;;;;;0.20;0.20;;;;;;;;;;5040021;28;20021;-79
2021/10/18 01:52:22;;;;;;;2.72;0.52;;;;;;;;;;5042326;28;20848;-80
2021/10/18 01:54:48;;;;;;;0.85;0.52;;;;;;;;;;5042560;28;20122;-81
2021/10/18 01:57:14;;;;;;;0.25;0.25;;;;;;;;;;5041778;28;20112;-79
2021/10/18 01:59:40;;;;;;;0.10;0.10;;;;;;;;;;5040168;28;20075;-79
2021/10/18 02:02:06;;;;;;;0.13;0.13;;;;;;;;;;5042676;28;20103;-79
2021/10/18 02:04:32;;;;;;;0.10;0.10;;;;;;;;;;5042863;28;20039;-77
2021/10/18 02:06:58;;;;;;;0.30;0.30;;;;;;;;;;5041663;28;20037;-78
2021/10/18 02:09:24;;;;;;;0.15;0.15;;;;;;;;;;5040510;28;20420;-78
2021/10/18 02:11:50;;;;;;;0.10;0.10;;;;;;;;;;5043474;28;20040;-77
2021/10/18 02:14:17;;;;;;;0.28;0.20;;;;;;;;;;5041445;28;20461;-77
2021/10/18 02:16:43;;;;;;;0.20;0.20;;;;;;;;;;5042509;28;20033;-77
2021/10/18 02:19:09;;;;;;;0.20;0.20;;;;;;;;;;5041366;28;20086;-77
2021/10/18 02:21:35;;;;;;;0.20;0.20;;;;;;;;;;5041776;28;20155;-77
2021/10/18 02:24:01;;;;;;;0.10;0.10;;;;;;;;;;5041529;28;20419;-77
2021/10/18 02:26:27;;;;;;;0.17;0.17;;;;;;;;;;5041446;28;20045;-78
2021/10/18 02:28:53;;;;;;;0.47;0.47;;;;;;;;;;5041630;28;20021;-78
2021/10/18 02:31:20;;;;;;;0.37;0.37;;;;;;;;;;5039717;28;20028;-79
2021/10/18 02:33:46;;;;;;;0.20;0.20;;;;;;;;;;5042427;28;20025;-78
2021/10/18 02:36:12;;;;;;;0.00;0.00;;;;;;;;;;5041671;28;20031;-79
2021/10/18 02:38:39;;;;;;;0.20;0.20;;;;;;;;;;5042142;28;20040;-80
2021/10/18 02:41:05;;;;;;;0.10;0.10;;;;;;;;;;5040539;28;20029;-80
2021/10/18 02:43:31;;;;;;;0.00;0.00;;;;;;;;;;5040331;28;20028;-80
2021/10/18 02:45:58;;;;;;;0.10;0.10;;;;;;;;;;5040564;28;20059;-79
2021/10/18 02:48:24;;;;;;;0.10;0.10;;;;;;;;;;5042102;28;20282;-79
2021/10/18 02:50:52;;;;;;;0.20;0.20;;;;;;;;;;5043457;28;20025;-79
2021/10/18 02:53:18;;;;;;;0.10;0.10;;;;;;;;;;5040673;28;20028;-78
2021/10/18 02:55:44;;;;;;;0.77;0.77;;;;;;;;;;5040466;28;20032;-79
2021/10/18 02:58:10;;;;;;;0.40;0.40;;;;;;;;;;5040079;28;20041;-80
2021/10/18 03:00:37;;;;;;;1.03;0.93;;;;;;;;;;5040277;28;20162;-80
2021/10/18 03:03:03;;;;;;;0.57;0.30;;;;;;;;;;5042884;28;20364;-79
2021/10/18 03:05:29;;;;;;;0.30;0.30;;;;;;;;;;5040712;28;20100;-80
2021/10/18 03:07:55;;;;;;;0.37;0.37;;;;;;;;;;5040003;28;20133;-79
2021/10/18 03:10:21;;;;;;;0.43;0.35;;;;;;;;;;5040669;28;20086;-79
2021/10/18 03:12:48;;;;;;;0.25;0.25;;;;;;;;;;5042117;28;20033;-79
2021/10/18 03:15:14;;;;;;;0.10;0.10;;;;;;;;;;5041437;28;20950;-78
2021/10/18 03:17:40;;;;;;;0.55;0.55;;;;;;;;;;5039652;28;20033;-79
2021/10/18 03:20:07;;;;;;;0.35;0.35;;;;;;;;;;5039956;28;20041;-78
2021/10/18 03:22:33;;;;;;;1.00;0.40;;;;;;;;;;5040212;28;20108;-78
2021/10/18 03:24:59;;;;;;;0.00;0.00;;;;;;;;;;5037612;28;20451;-79
2021/10/18 03:27:25;;;;;;;0.10;0.10;;;;;;;;;;5040213;28;20411;-80
2021/10/18 03:29:51;;;;;;;0.13;0.13;;;;;;;;;;5043020;28;20089;-80
2021/10/18 03:32:17;;;;;;;5.28;3.70;;;;;;;;;;5039761;28;20503;-80
2021/10/18 03:34:44;;;;;;;1.40;1.30;;;;;;;;;;5041560;28;20020;-79
2021/10/18 03:37:10;;;;;;;0.40;0.40;;;;;;;;;;5040557;28;20052;-79
2021/10/18 03:39:36;;;;;;;1.42;0.90;;;;;;;;;;5041265;28;20567;-79
2021/10/18 03:42:02;;;;;;;0.10;0.10;;;;;;;;;;5040511;28;20025;-79
2021/10/18 03:44:28;;;;;;;0.25;0.25;;;;;;;;;;5042000;28;20028;-80
2021/10/18 03:46:54;;;;;;;0.53;0.37;;;;;;;;;;5040215;28;20128;-78
2021/10/18 03:49:20;;;;;;;0.20;0.20;;;;;;;;;;5038804;28;20178;-79
2021/10/18 03:51:46;;;;;;;0.88;0.65;;;;;;;;;;5040145;28;20036;-78
2021/10/18 03:54:12;;;;;;;0.28;0.28;;;;;;;;;;5040181;28;20741;-78
2021/10/18 03:56:39;;;;;;;1.40;0.80;;;;;;;;;;5039292;28;20028;-79
2021/10/18 03:59:05;;;;;;;0.97;0.40;;;;;;;;;;5040743;28;20577;-79
2021/10/18 04:01:31;;;;;;;0.52;0.52;;;;;;;;;;5041359;28;20171;-78
2021/10/18 04:04:28;;;;;;;0.10;0.10;;;;;;;;;;5036194;28;20040;-79
2021/10/18 04:06:54;;;;;;;0.10;0.10;;;;;;;;;;5037984;28;20749;-78
2021/10/18 04:09:20;;;;;;;0.50;0.50;;;;;;;;;;5041357;28;20119;-79
2021/10/18 04:11:46;;;;;;;0.20;0.20;;;;;;;;;;5041379;28;20144;-79
2021/10/18 04:14:12;;;;;;;0.20;0.20;;;;;;;;;;5040410;28;20021;-79
2021/10/18 04:16:39;;;;;;;0.10;0.10;;;;;;;;;;5039223;28;20340;-78
2021/10/18 04:19:05;;;;;;;0.20;0.20;;;;;;;;;;5039890;28;20044;-78
2021/10/18 04:21:31;;;;;;;0.10;0.10;;;;;;;;;;5040041;28;20091;-79
2021/10/18 04:23:57;;;;;;;0.77;0.33;;;;;;;;;;5040403;28;20024;-79
2021/10/18 04:26:23;;;;;;;0.47;0.47;;;;;;;;;;5038788;28;20053;-79
2021/10/18 04:28:49;;;;;;;0.43;0.43;;;;;;;;;;5040663;28;20020;-78
2021/10/18 04:31:16;;;;;;;0.40;0.40;;;;;;;;;;5039545;28;20048;-78
2021/10/18 04:33:42;;;;;;;0.10;0.10;;;;;;;;;;5040814;28;20279;-78
2021/10/18 04:36:08;;;;;;;0.35;0.35;;;;;;;;;;5040598;28;20040;-78
2021/10/18 04:38:34;;;;;;;0.10;0.10;;;;;;;;;;5042114;28;20118;-79
2021/10/18 04:41:00;;;;;;;0.13;0.13;;;;;;;;;;5038731;28;20065;-78
2021/10/18 04:43:26;;;;;;;0.10;0.10;;;;;;;;;;5038427;28;20064;-78
2021/10/18 04:45:52;;;;;;;0.10;0.10;;;;;;;;;;5041167;28;20154;-77
2021/10/18 04:48:18;;;;;;;0.40;0.40;;;;;;;;;;5039086;28;20052;-79
2021/10/18 04:50:44;;;;;;;0.10;0.10;;;;;;;;;;5040953;28;20029;-82
2021/10/18 04:53:10;;;;;;;0.30;0.30;;;;;;;;;;5040345;28;20025;-83
2021/10/18 04:55:36;;;;;;;0.32;0.32;;;;;;;;;;5039998;28;20033;-83
2021/10/18 04:58:04;;;;;;;0.20;0.20;;;;;;;;;;5041241;28;20081;-82
2021/10/18 05:00:35;;;;;;;0.10;0.10;;;;;;;;;;5036021;28;20032;-79
2021/10/18 05:03:01;;;;;;;0.40;0.40;;;;;;;;;;5042987;28;20144;-79
2021/10/18 05:05:27;;;;;;;0.13;0.13;;;;;;;;;;5032679;28;20084;-84
2021/10/18 05:08:04;;;;;;;1.03;0.73;;;;;;;;;;5031967;28;20074;-80
2021/10/18 05:10:30;;;;;;;0.70;0.70;;;;;;;;;;5035246;28;20025;-78
2021/10/18 05:12:56;;;;;;;0.35;0.35;;;;;;;;;;5037238;28;20041;-78
2021/10/18 05:15:22;;;;;;;0.47;0.47;;;;;;;;;;5033839;28;20030;-79
2021/10/18 05:17:48;;;;;;;0.20;0.20;;;;;;;;;;5036206;28;20037;-81
2021/10/18 05:20:14;;;;;;;2.90;1.25;;;;;;;;;;5031394;28;20112;-78
2021/10/18 05:22:40;;;;;;;0.25;0.25;;;;;;;;;;5033469;28;20052;-77
2021/10/18 05:25:08;;;;;;;1.58;0.85;;;;;;;;;;5035240;28;20049;-77
2021/10/18 05:27:34;;;;;;;0.08;0.08;;;;;;;;;;5034714;28;20510;-77
2021/10/18 05:30:00;;;;;;;0.20;0.20;;;;;;;;;;5035479;28;20049;-78
2021/10/18 05:32:26;;;;;;;0.15;0.15;;;;;;;;;;5044121;28;20799;-77
2021/10/18 05:34:52;;;;;;;0.28;0.28;;;;;;;;;;5043000;28;20578;-77
2021/10/18 05:37:23;;;;;;;0.32;0.32;;;;;;;;;;5044380;28;20035;-78
2021/10/18 05:39:50;;;;;;;0.93;0.30;;;;;;;;;;5043329;28;20029;-81
2021/10/18 05:42:16;;;;;;;0.35;0.35;;;;;;;;;;5042913;28;20511;-80
2021/10/18 05:44:42;;;;;;;6.10;0.57;;;;;;;;;;5042761;28;20080;-82
2021/10/18 05:47:08;;;;;;;0.55;0.52;;;;;;;;;;5042231;28;20045;-82
2021/10/18 05:49:34;;;;;;;0.45;0.45;;;;;;;;;;5037622;28;20025;-82
2021/10/18 05:52:01;;;;;;;0.20;0.20;;;;;;;;;;5034100;28;20041;-83
2021/10/18 05:54:27;;;;;;;0.38;0.38;;;;;;;;;;5028941;28;20029;-83
2021/10/18 05:56:53;;;;;;;1.27;0.52;;;;;;;;;;5043364;28;20036;-84
2021/10/18 05:59:20;;;;;;;1.02;1.02;;;;;;;;;;5040118;28;20571;-84
2021/10/18 06:01:46;;;;;;;0.10;0.10;;;;;;;;;;5040777;28;20459;-83
2021/10/18 06:04:12;;;;;;;0.17;0.17;;;;;;;;;;5040695;28;20037;-83
2021/10/18 06:06:38;;;;;;;0.00;0.00;;;;;;;;;;5041846;28;20118;-81
2021/10/18 06:09:05;;;;;;;0.17;0.17;;;;;;;;;;5027427;28;20511;-81
2021/10/18 06:11:31;;;;;;;0.20;0.20;;;;;;;;;;5042116;28;20263;-80
2021/10/18 06:13:58;;;;;;;0.10;0.10;;;;;;;;;;5040265;28;20080;-77
2021/10/18 06:16:24;;;;;;;0.15;0.15;;;;;;;;;;5040033;28;20033;-76
2021/10/18 06:18:50;;;;;;;1.45;0.98;;;;;;;;;;5041587;28;20164;-76
2021/10/18 06:21:16;;;;;;;0.13;0.13;;;;;;;;;;5043454;28;20045;-78
2021/10/18 06:23:43;;;;;;;1.27;0.77;;;;;;;;;;5026677;28;20029;-77
2021/10/18 06:26:10;;;;;;;0.20;0.20;;;;;;;;;;5037959;28;20392;-77
2021/10/18 06:28:36;;;;;;;0.10;0.10;;;;;;;;;;5041025;28;20457;-77
2021/10/18 06:31:02;;;;;;;0.10;0.10;;;;;;;;;;5042875;28;20171;-79
2021/10/18 06:33:28;;;;;;;0.17;0.17;;;;;;;;;;5047579;28;20813;-80
2021/10/18 06:35:54;;;;;;;0.20;0.20;;;;;;;;;;5046374;28;20025;-78
2021/10/18 06:38:21;;;;;;;0.40;0.40;;;;;;;;;;5037261;28;20386;-79
2021/10/18 06:40:48;;;;;;;0.25;0.25;;;;;;;;;;5044573;28;20499;-81
2021/10/18 06:43:14;;;;;;;0.30;0.30;;;;;;;;;;5043339;28;20041;-80
2021/10/18 06:45:41;;;;;;;0.70;0.70;;;;;;;;;;5045550;28;20829;-80
2021/10/18 06:48:08;;;;;;;1.27;0.82;;;;;;;;;;5046067;28;20378;-81
2021/10/18 06:50:35;;;;;;;0.25;0.25;;;;;;;;;;5036865;28;20134;-80
2021/10/18 06:53:01;;;;;;;3.38;0.90;;;;;;;;;;5040448;28;20040;-80
2021/10/18 06:55:27;;;;;;;0.30;0.30;;;;;;;;;;5043362;28;20088;-81
2021/10/18 06:57:55;;;;;;;0.63;0.63;;;;;;;;;;5045735;28;20035;-80
2021/10/18 07:00:22;;;;;;;0.32;0.32;;;;;;;;;;5047339;28;20025;-81
2021/10/18 07:02:48;;;;;;;0.20;0.20;;;;;;;;;;5046021;28;20025;-80
2021/10/18 07:05:14;;;;;;;0.43;0.43;;;;;;;;;;5042647;28;20496;-78
2021/10/18 07:07:40;;;;;;;0.10;0.10;;;;;;;;;;5048518;28;20037;-80
2021/10/18 07:10:06;;;;;;;0.10;0.10;;;;;;;;;;5032460;28;20115;-80
2021/10/18 07:12:33;;;;;;;0.70;0.22;;;;;;;;;;5041992;28;20280;-80
2021/10/18 07:14:59;;;;;;;;;;;;;;;;;;5041910;28;20037;-80
2021/10/18 07:17:26;;;;;;;0.45;0.45;;;;;;;;;;5039833;28;19908;-80
2021/10/18 07:19:53;;;;;;;0.93;0.85;;;;;;;;;;5038654;28;20038;-80
2021/10/18 07:22:21;;;;;;;0.80;0.50;;;;;;;;;;5038694;28;20033;-80
2021/10/18 07:24:47;;;;;;;0.10;0.10;;;;;;;;;;5040049;28;20526;-80
2021/10/18 07:27:13;;;;;;;0.20;0.20;;;;;;;;;;5041366;28;20561;-80
2021/10/18 07:29:39;;;;;;;0.20;0.20;;;;;;;;;;5042231;28;20509;-79
2021/10/18 07:32:06;;;;;;;0.20;0.20;;;;;;;;;;5038970;28;20117;-80
2021/10/18 07:34:32;;;;;;;;;;;;;;;;;;5038639;28;20297;-80
2021/10/18 07:36:58;;;;;;;0.28;0.28;;;;;;;;;;5038424;28;20299;-80
2021/10/18 07:39:25;;;;;;;0.10;0.10;;;;;;;;;;5042919;28;20047;-80
2021/10/18 07:41:52;;;;;;;0.17;0.17;;;;;;;;;;5041202;28;20585;-79
2021/10/18 07:44:19;;;;;;;0.30;0.30;;;;;;;;;;5029573;28;20090;-80
2021/10/18 07:46:45;;;;;;;0.30;0.30;;;;;;;;;;5032384;28;20040;-79
2021/10/18 07:49:12;;;;;;;0.20;0.20;;;;;;;;;;5038228;28;20053;-79
2021/10/18 07:51:38;;;;;;;0.68;0.68;;;;;;;;;;5040892;28;20116;-80
2021/10/18 07:54:04;;;;;;;0.30;0.30;;;;;;;;;;5040401;28;20705;-79
2021/10/18 07:56:30;;;;;;;0.03;0.03;;;;;;;;;;5039749;28;20025;-79
2021/10/18 07:58:57;;;;;;;0.10;0.10;;;;;;;;;;5038080;28;20495;-79
2021/10/18 08:01:23;;;;;;;0.10;0.10;;;;;;;;;;5037586;28;20598;-79
2021/10/18 08:03:49;;;;;;;0.40;0.40;;;;;;;;;;5038656;28;20033;-79
2021/10/18 08:06:15;;;;;;;0.20;0.20;;;;;;;;;;5040907;28;20701;-80
2021/10/18 08:08:50;;;;;;;0.10;0.10;;;;;;;;;;5040608;28;20713;-80
2021/10/18 08:11:16;;;;;;;0.30;0.30;;;;;;;;;;5037287;28;20090;-80
2021/10/18 08:13:42;;;;;;;0.30;0.30;;;;;;;;;;5037595;28;20507;-79
2021/10/18 08:16:09;;;;;;;0.22;0.22;;;;;;;;;;5037080;28;20841;-79
2021/10/18 08:18:35;;;;;;;0.15;0.15;;;;;;;;;;5040424;28;20057;-79
2021/10/18 08:21:01;;;;;;;0.10;0.10;;;;;;;;;;5040418;28;20025;-79
2021/10/18 08:23:27;;;;;;;0.40;0.40;;;;;;;;;;5038735;28;20333;-79
2021/10/18 08:25:53;;;;;;;0.30;0.30;;;;;;;;;;5031704;28;20063;-79
2021/10/18 08:28:19;;;;;;;0.20;0.20;;;;;;;;;;5030483;28;20275;-79
2021/10/18 08:30:45;;;;;;;0.15;0.15;;;;;;;;;;5040684;28;20033;-80
2021/10/18 08:33:11;;;;;;;0.28;0.28;;;;;;;;;;5025660;28;20025;-80
2021/10/18 08:35:37;;;;;;;1.70;0.90;;;;;;;;;;5039677;28;20035;-79
2021/10/18 08:38:21;;;;;;;0.20;0.20;;;;;;;;;;5037744;28;20041;-79
2021/10/18 08:45:53;;;;;;;0.60;0.60;;;;;;;;;;5037742;28;21146;-79
2021/10/18 08:48:19;;;;;;;0.10;0.10;;;;;;;;;;5040965;28;20112;-79
2021/10/18 08:50:45;;;;;;;0.52;0.20;;;;;;;;;;5039731;28;20166;-79
2021/10/18 08:53:12;;;;;;;0.20;0.20;;;;;;;;;;5037164;28;20496;-79
2021/10/18 08:55:41;;;;;;;0.20;0.20;;;;;;;;;;5036753;28;20025;-79
2021/10/18 08:58:08;;;;;;;1.65;0.45;;;;;;;;;;5037784;28;20853;-79
2021/10/18 09:00:37;;;;;;;0.40;0.20;;;;;;;;;;5043900;28;20057;-79
2021/10/18 09:03:14;;;;;;;0.40;0.40;;;;;;;;;;5043899;28;20033;-80
2021/10/18 09:05:40;;;;;;;0.10;0.10;;;;;;;;;;5032520;28;20101;-80
2021/10/18 09:08:06;;;;;;;0.73;0.73;;;;;;;;;;5039193;28;20037;-80
2021/10/18 09:10:32;;;;;;;0.40;0.40;;;;;;;;;;5040705;28;20454;-80
2021/10/18 09:13:10;;;;;;;0.00;0.00;;;;;;;;;;5040908;28;20029;-79
2021/10/18 09:15:36;;;;;;;0.45;0.45;;;;;;;;;;5029964;28;20029;-79
2021/10/18 09:18:02;;;;;;;0.20;0.20;;;;;;;;;;5043534;28;20124;-79
2021/10/18 09:20:31;;;;;;;0.10;0.10;;;;;;;;;;5042246;28;20095;-80
2021/10/18 09:23:17;;;;;;;2.20;0.73;;;;;;;;;;5040715;28;21079;-79
2021/10/18 09:26:16;;;;;;;0.13;0.13;;;;;;;;;;5040024;28;20527;-78
2021/10/18 09:28:44;;;;;;;0.10;0.10;;;;;;;;;;5041656;28;20039;-80
2021/10/18 09:31:16;;;;;;;0.75;0.63;;;;;;;;;;5040472;28;20025;-80
2021/10/18 09:33:47;;;;;;;0.10;0.10;;;;;;;;;;5042528;28;20035;-79
2021/10/18 09:36:18;;;;;;;0.17;0.17;;;;;;;;;;5043536;28;20117;-79
2021/10/18 09:38:44;;;;;;;0.20;0.20;;;;;;;;;;5026976;28;20036;-79
2021/10/18 09:41:10;;;;;;;0.13;0.13;;;;;;;;;;5038843;28;20044;-79
2021/10/18 10:53:17;;;;;;;0.20;0.20;;;;;;;;;;5038245;28;20458;-80
2021/10/18 10:55:43;;;;;;;0.50;0.50;;;;;;;;;;5039706;28;20024;-80
2021/10/18 10:58:28;;;;;;;0.10;0.10;;;;;;;;;;5039795;28;20033;-80
2021/10/18 11:00:54;;;;;;;0.30;0.30;;;;;;;;;;5040318;28;20025;-80
2021/10/18 11:03:25;;;;;;;0.20;0.20;;;;;;;;;;5043555;28;20025;-80
2021/10/18 11:05:55;;;;;;;0.30;0.30;;;;;;;;;;5041717;28;20036;-80
2021/10/18 11:08:44;;;;;;;0.63;0.55;;;;;;;;;;5040011;28;20044;-80
2021/10/18 11:11:22;;;;;;;0.20;0.20;;;;;;;;;;5029099;28;20040;-80
2021/10/18 11:13:54;;;;;;;0.20;0.20;;;;;;;;;;5034753;28;20095;-80
2021/10/18 11:16:22;;;;;;;0.10;0.10;;;;;;;;;;5039630;28;20399;-80
2021/10/18 11:18:49;;;;;;;0.73;0.60;;;;;;;;;;5040617;28;20043;-80
2021/10/18 11:21:20;;;;;;;0.20;0.20;;;;;;;;;;5040748;28;20450;-80
2021/10/18 11:23:58;;;;;;;0.28;0.20;;;;;;;;;;5041340;28;20067;-80
2021/10/18 11:26:24;;;;;;;0.25;0.25;;;;;;;;;;5030635;28;20823;-80
2021/10/18 11:28:52;;;;;;;0.28;0.20;;;;;;;;;;5036079;28;20028;-80
2021/10/18 11:31:18;;;;;;;1.00;0.47;;;;;;;;;;5038780;28;20037;-80
2021/10/18 11:34:00;;;;;;;0.45;0.45;;;;;;;;;;5041170;28;20025;-80
2021/10/18 11:36:26;;;;;;;0.57;0.40;;;;;;;;;;5027748;28;20490;-79
2021/10/18 11:39:06;;;;;;;0.32;0.32;;;;;;;;;;5041075;28;20571;-80
2021/10/18 11:41:32;;;;;;;0.30;0.30;;;;;;;;;;5040310;28;20102;-80
2021/10/18 11:43:58;;;;;;;0.00;0.00;;;;;;;;;;5038640;28;20033;-80
2021/10/18 11:46:24;;;;;;;0.15;0.15;;;;;;;;;;5038004;28;20519;-80
2021/10/18 11:48:50;;;;;;;0.93;0.30;;;;;;;;;;5039835;28;20396;-80
2021/10/18 11:51:16;;;;;;;0.25;0.25;;;;;;;;;;5041655;28;20017;-80
2021/10/18 11:53:44;;;;;;;0.10;0.10;;;;;;;;;;5040885;28;20032;-80
2021/10/18 11:56:17;;;;;;;0.73;0.70;;;;;;;;;;5038517;28;20025;-80
2021/10/18 11:58:44;;;;;;;0.20;0.20;;;;;;;;;;5034374;28;20117;-80
2021/10/18 12:01:10;;;;;;;0.20;0.20;;;;;;;;;;5028366;28;20029;-79
2021/10/18 12:03:36;;;;;;;;;;;;;;;;;;5041465;28;20075;-80
2021/10/18 12:06:04;;;;;;;0.30;0.30;;;;;;;;;;5027617;28;20383;-80
2021/10/18 12:08:31;;;;;;;0.47;0.47;;;;;;;;;;5039396;28;20040;-80
2021/10/18 12:10:58;;;;;;;0.15;0.15;;;;;;;;;;5032709;28;20508;-80
2021/10/18 12:13:25;;;;;;;0.10;0.10;;;;;;;;;;5030339;28;20855;-80
2021/10/18 12:16:03;;;;;;;0.00;0.00;;;;;;;;;;5040318;28;20048;-80
2021/10/18 12:18:30;;;;;;;0.30;0.30;;;;;;;;;;5026617;28;20055;-80
2021/10/18 12:21:01;;;;;;;0.15;0.15;;;;;;;;;;5040766;28;20029;-80
2021/10/18 12:23:27;;;;;;;0.60;0.25;;;;;;;;;;5030763;28;20124;-80
2021/10/18 12:25:56;;;;;;;0.20;0.20;;;;;;;;;;5029146;28;20041;-80
2021/10/18 12:28:25;;;;;;;0.47;0.47;;;;;;;;;;5031886;28;20576;-80
2021/10/18 12:30:51;;;;;;;0.10;0.10;;;;;;;;;;5040636;28;20430;-80
2021/10/18 12:33:17;;;;;;;0.15;0.15;;;;;;;;;;5025876;28;20120;-80
2021/10/18 12:35:43;;;;;;;0.22;0.22;;;;;;;;;;5028948;28;20041;-80
2021/10/18 12:38:13;;;;;;;0.03;0.03;;;;;;;;;;5029657;28;20030;-80
2021/10/18 12:40:40;;;;;;;0.20;0.20;;;;;;;;;;5029452;28;20030;-80
2021/10/18 12:43:06;;;;;;;2.47;1.27;;;;;;;;;;5029577;28;20064;-80
2021/10/18 12:45:34;;;;;;;0.47;0.47;;;;;;;;;;5024617;28;20056;-80
2021/10/18 12:48:00;;;;;;;0.00;0.00;;;;;;;;;;5027702;28;20028;-80
2021/10/18 12:50:36;;;;;;;0.20;0.20;;;;;;;;;;5029658;28;20049;-80
2021/10/18 12:53:10;;;;;;;0.05;0.05;;;;;;;;;;5029533;28;20067;-80
2021/10/18 12:55:38;;;;;;;0.30;0.30;;;;;;;;;;5029310;28;20049;-80
2021/10/18 12:58:05;;;;;;;0.20;0.20;;;;;;;;;;5029454;28;20029;-80
2021/10/18 13:00:32;;;;;;;0.30;0.30;;;;;;;;;;5026779;28;20036;-80
2021/10/18 13:02:59;;;;;;;1.45;0.45;;;;;;;;;;5038957;28;20113;-80
2021/10/18 13:05:28;;;;;;;0.20;0.20;;;;;;;;;;5029865;28;20036;-80
2021/10/18 13:07:55;;;;;;;0.40;0.40;;;;;;;;;;5029506;28;20044;-80
2021/10/18 13:10:23;;;;;;;0.15;0.15;;;;;;;;;;5029777;28;20100;-80
2021/10/18 13:12:50;;;;;;;0.80;0.40;;;;;;;;;;5039643;28;20021;-80
2021/10/18 13:15:17;;;;;;;1.00;0.60;;;;;;;;;;5041074;28;20026;-80
2021/10/18 13:17:44;;;;;;;0.20;0.20;;;;;;;;;;5040183;28;20040;-80
2021/10/18 13:20:11;;;;;;;0.17;0.17;;;;;;;;;;5038037;28;20025;-80
2021/10/18 13:22:37;;;;;;;0.57;0.50;;;;;;;;;;5037918;28;20025;-80
2021/10/18 13:25:03;;;;;;;;;;;;;;;;;;5038219;28;20048;-80
2021/10/18 13:27:31;;;;;;;0.20;0.20;;;;;;;;;;5041873;28;20319;-80
2021/10/18 13:29:57;;;;;;;0.38;0.35;;;;;;;;;;5041603;28;20029;-80
2021/10/18 13:32:23;;;;;;;0.30;0.30;;;;;;;;;;5037958;28;20793;-80
2021/10/18 13:34:49;;;;;;;1.25;0.70;;;;;;;;;;5037963;28;20021;-79
2021/10/18 13:37:15;;;;;;;0.10;0.10;;;;;;;;;;5037029;28;20067;-79
2021/10/18 13:39:42;;;;;;;0.20;0.20;;;;;;;;;;5040241;28;20151;-80
2021/10/18 13:42:08;;;;;;;0.10;0.10;;;;;;;;;;5040488;28;20597;-80
2021/10/18 13:44:35;;;;;;;0.32;0.32;;;;;;;;;;5039276;28;20028;-80
2021/10/18 13:47:01;;;;;;;;;;;;;;;;;;5041504;28;20044;-80
2021/10/18 13:49:27;;;;;;;1.60;0.35;;;;;;;;;;5040501;28;19913;-80
2021/10/18 13:51:53;;;;;;;0.70;0.70;;;;;;;;;;5042055;28;20032;-80
2021/10/18 13:54:19;;;;;;;0.20;0.20;;;;;;;;;;5044750;28;20168;-80
2021/10/18 13:56:45;;;;;;;0.28;0.28;;;;;;;;;;5043165;28;20055;-80
2021/10/18 13:59:12;;;;;;;1.10;0.52;;;;;;;;;;5040769;28;20044;-80
2021/10/18 14:01:38;;;;;;;0.85;0.32;;;;;;;;;;5040900;28;20029;-80
2021/10/18 14:04:05;;;;;;;0.38;0.32;;;;;;;;;;5040834;28;20029;-80
2021/10/18 14:06:31;;;;;;;0.35;0.35;;;;;;;;;;5044991;28;20041;-80
2021/10/18 14:08:57;;;;;;;0.65;0.65;;;;;;;;;;5043049;28;20032;-80
2021/10/18 14:11:23;;;;;;;0.32;0.32;;;;;;;;;;5040915;28;20041;-80
2021/10/18 14:13:49;;;;;;;0.10;0.10;;;;;;;;;;5040337;28;20028;-80
2021/10/18 14:16:15;;;;;;;14.07;1.90;;;;;;;;;;5040444;28;20033;-80
2021/10/18 14:18:41;;;;;;;0.43;0.43;;;;;;;;;;5043272;28;20568;-80
2021/10/18 14:21:09;;;;;;;0.10;0.10;;;;;;;;;;5043155;28;20308;-80
2021/10/18 14:23:35;;;;;;;0.60;0.57;;;;;;;;;;5042386;28;20585;-79
2021/10/18 14:26:01;;;;;;;0.10;0.10;;;;;;;;;;5039756;28;20109;-80
2021/10/18 14:28:28;;;;;;;0.35;0.35;;;;;;;;;;5042190;28;20056;-80
2021/10/18 14:30:54;;;;;;;0.32;0.32;;;;;;;;;;5041468;28;20068;-80
2021/10/18 14:33:21;;;;;;;0.10;0.10;;;;;;;;;;5044760;28;20033;-80
2021/10/18 14:35:47;;;;;;;0.95;0.50;;;;;;;;;;5042525;28;20114;-80
2021/10/18 14:38:13;;;;;;;0.90;0.35;;;;;;;;;;5040273;28;20378;-79
2021/10/18 14:40:39;;;;;;;0.10;0.10;;;;;;;;;;5040243;28;20586;-80
2021/10/18 14:43:05;;;;;;;0.40;0.40;;;;;;;;;;5043148;28;20853;-80
2021/10/18 14:45:32;;;;;;;0.30;0.30;;;;;;;;;;5028431;28;20064;-80
2021/10/18 14:48:00;;;;;;;0.47;0.47;;;;;;;;;;5041449;28;20037;-79
2021/10/18 14:50:26;;;;;;;0.20;0.20;;;;;;;;;;5031883;28;20155;-80
2021/10/18 14:52:52;;;;;;;0.10;0.10;;;;;;;;;;5035591;28;20036;-80
2021/10/18 14:55:18;;;;;;;0.30;0.30;;;;;;;;;;5039950;28;20033;-80
2021/10/18 14:57:44;;;;;;;0.17;0.17;;;;;;;;;;5042120;28;20032;-80
2021/10/18 15:00:10;;;;;;;0.35;0.35;;;;;;;;;;5042724;28;20032;-80
2021/10/18 15:02:38;;;;;;;0.57;0.57;;;;;;;;;;5041896;28;20033;-80
2021/10/18 15:05:04;;;;;;;0.70;0.70;;;;;;;;;;5039082;28;20040;-80
2021/10/18 15:07:30;;;;;;;0.38;0.38;;;;;;;;;;5039230;28;20111;-80
2021/10/18 15:09:56;;;;;;;0.30;0.30;;;;;;;;;;5040261;28;20419;-80
2021/10/18 15:12:22;;;;;;;0.13;0.13;;;;;;;;;;5044029;28;20032;-80
2021/10/18 15:14:48;;;;;;;0.15;0.15;;;;;;;;;;5041693;28;20198;-80
2021/10/18 15:17:15;;;;;;;0.15;0.15;;;;;;;;;;5037970;28;20489;-78
2021/10/18 15:19:41;;;;;;;0.20;0.20;;;;;;;;;;5042092;28;20077;-78
2021/10/18 15:22:07;;;;;;;0.07;0.07;;;;;;;;;;5038714;28;20037;-77
2021/10/18 15:24:35;;;;;;;0.20;0.20;;;;;;;;;;5042692;28;21062;-78
2021/10/18 15:27:01;;;;;;;0.63;0.35;;;;;;;;;;5026272;28;20120;-77
2021/10/18 15:29:27;;;;;;;0.13;0.13;;;;;;;;;;5031018;28;20559;-78
2021/10/18 15:31:54;;;;;;;0.25;0.25;;;;;;;;;;5032406;28;20040;-78
2021/10/18 15:34:20;;;;;;;0.63;0.28;;;;;;;;;;5029067;28;20404;-79
2021/10/18 15:36:46;;;;;;;2.75;0.43;;;;;;;;;;5025405;28;20052;-78
2021/10/18 15:39:13;;;;;;;0.20;0.20;;;;;;;;;;5040367;28;20028;-78
2021/10/18 15:41:39;;;;;;;0.30;0.30;;;;;;;;;;5026260;28;20942;-79
2021/10/18 15:44:06;;;;;;;0.30;0.30;;;;;;;;;;5025758;28;20440;-78
2021/10/18 15:46:33;;;;;;;0.13;0.13;;;;;;;;;;5031667;28;20032;-78
2021/10/18 15:49:00;;;;;;;0.20;0.20;;;;;;;;;;5026988;28;20436;-78
2021/10/18 15:51:26;;;;;;;0.88;0.40;;;;;;;;;;5025254;28;20036;-78
2021/10/18 15:53:52;;;;;;;1.40;1.27;;;;;;;;;;5027490;28;20025;-78
2021/10/18 15:56:18;;;;;;;0.40;0.40;;;;;;;;;;5027396;28;20025;-77
2021/10/18 15:58:44;;;;;;;0.75;0.47;;;;;;;;;;5031188;28;20404;-78